createdAt,value
2023-02-14T00:00:50.459Z,11.68
2023-02-14T00:03:16.993Z,9.60
2023-02-14T00:05:43.671Z,10.23
2023-02-14T00:08:10.475Z,10.77
2023-02-14T00:10:37.154Z,11.50
2023-02-14T00:13:04.666Z,11.82
2023-02-14T00:15:31.405Z,11.05
2023-02-14T00:18:00.919Z,11.68
2023-02-14T00:20:28.880Z,11.93
2023-02-14T00:22:55.543Z,12.25
2023-02-14T00:25:22.147Z,13.07
2023-02-14T00:27:48.796Z,12.73
2023-02-14T00:30:15.772Z,12.63
2023-02-14T00:32:42.894Z,12.30
2023-02-14T00:35:10.958Z,14.18
2023-02-14T00:37:40.862Z,12.77
2023-02-14T00:40:07.939Z,12.18
2023-02-14T00:42:34.956Z,12.25
2023-02-14T00:45:01.501Z,10.65
2023-02-14T00:47:28.239Z,11.00
2023-02-14T00:49:54.893Z,10.48
2023-02-14T00:52:21.608Z,9.23
2023-02-14T00:54:48.152Z,7.57
2023-02-14T00:57:14.774Z,8.98
2023-02-14T00:59:41.337Z,8.27
2023-02-14T01:02:08.200Z,8.00
2023-02-14T01:04:35.098Z,8.18
2023-02-14T01:07:01.625Z,8.73
2023-02-14T01:09:28.170Z,10.40
2023-02-14T01:11:55.109Z,10.93
2023-02-14T01:14:21.675Z,9.70
2023-02-14T01:16:49.754Z,8.88
2023-02-14T01:19:16.763Z,10.48
2023-02-14T01:21:43.912Z,10.50
2023-02-14T01:24:12.071Z,9.45
2023-02-14T01:26:39.431Z,9.80
2023-02-14T01:29:06.781Z,8.93
2023-02-14T01:31:35.518Z,10.73
2023-02-14T01:34:02.882Z,11.15
2023-02-14T01:36:38.058Z,12.32
2023-02-14T01:39:07.876Z,12.07
2023-02-14T01:41:37.892Z,12.77
2023-02-14T01:44:27.572Z,12.80
2023-02-14T01:46:55.631Z,13.88
2023-02-14T01:49:27.595Z,13.60
2023-02-14T01:52:10.529Z,13.40
2023-02-14T01:54:52.100Z,13.02
2023-02-14T01:57:22.739Z,14.15
2023-02-14T01:59:56.014Z,13.13
2023-02-14T02:02:26.009Z,13.93
2023-02-14T02:04:55.988Z,13.70
2023-02-14T02:07:26.504Z,14.55
2023-02-14T02:09:56.908Z,14.13
2023-02-14T02:12:23.847Z,13.38
2023-02-14T02:14:53.251Z,13.20
2023-02-14T02:17:37.807Z,14.13
2023-02-14T02:20:22.977Z,12.73
2023-02-14T02:23:04.770Z,13.77
2023-02-14T02:25:53.746Z,12.52
2023-02-14T02:28:39.207Z,12.32
2023-02-14T02:31:27.274Z,11.23
2023-02-14T02:34:21.634Z,12.15
2023-02-14T02:37:02.709Z,12.77
2023-02-14T02:39:41.837Z,12.63
2023-02-14T02:42:34.183Z,12.80
2023-02-14T02:45:00.810Z,12.05
2023-02-14T02:47:53.165Z,11.57
2023-02-14T02:50:51.632Z,11.35
2023-02-14T02:53:42.862Z,10.68
2023-02-14T02:56:33.445Z,10.07
2023-02-14T02:59:04.834Z,9.73
2023-02-14T03:01:36.584Z,11.95
2023-02-14T03:04:25.620Z,10.88
2023-02-14T03:06:52.860Z,11.27
2023-02-14T03:09:19.495Z,12.73
2023-02-14T03:12:12.961Z,12.27
2023-02-14T03:14:50.859Z,12.75
2023-02-14T03:17:49.458Z,12.15
2023-02-14T03:20:26.734Z,11.65
2023-02-14T03:23:27.875Z,11.57
2023-02-14T03:26:04.857Z,11.77
2023-02-14T03:28:59.249Z,11.10
2023-02-14T03:31:43.122Z,10.57
2023-02-14T03:34:22.107Z,10.18
2023-02-14T03:37:01.134Z,10.73
2023-02-14T03:39:38.219Z,9.93
2023-02-14T03:42:14.379Z,11.20
2023-02-14T03:44:44.188Z,12.10
2023-02-14T03:47:18.711Z,11.95
2023-02-14T03:49:50.874Z,12.57
2023-02-14T03:52:19.563Z,14.18
2023-02-14T03:54:49.378Z,11.60
2023-02-14T03:57:23.693Z,11.40
2023-02-14T03:59:50.628Z,11.40
2023-02-14T04:02:23.920Z,10.10
2023-02-14T04:04:52.404Z,10.63
2023-02-14T04:07:23.028Z,10.10
2023-02-14T04:09:50.386Z,10.25
2023-02-14T04:12:24.010Z,9.68
2023-02-14T04:14:55.842Z,9.43
2023-02-14T04:17:40.706Z,8.35
2023-02-14T04:20:07.341Z,9.60
2023-02-14T04:22:33.875Z,9.13
2023-02-14T04:25:00.405Z,10.68
2023-02-14T04:27:26.942Z,10.25
2023-02-14T04:29:53.616Z,10.55
2023-02-14T04:32:21.743Z,11.10
2023-02-14T04:34:48.493Z,11.23
2023-02-14T04:37:17.891Z,11.15
2023-02-14T04:39:44.529Z,12.38
2023-02-14T04:42:12.497Z,11.50
2023-02-14T04:44:39.239Z,11.45
2023-02-14T04:47:06.692Z,10.95
2023-02-14T04:49:33.226Z,10.95
2023-02-14T04:52:00.371Z,11.25
2023-02-14T04:54:27.227Z,10.70
2023-02-14T04:56:53.852Z,11.50
2023-02-14T04:59:20.766Z,10.63
2023-02-14T05:01:47.464Z,10.57
2023-02-14T05:04:14.166Z,11.27
2023-02-14T05:06:40.913Z,10.70
2023-02-14T05:09:07.442Z,11.60
2023-02-14T05:11:33.986Z,11.57
2023-02-14T05:14:00.608Z,10.68
2023-02-14T05:16:27.197Z,10.65
2023-02-14T05:18:53.983Z,11.65
2023-02-14T05:21:20.621Z,11.45
2023-02-14T05:23:47.262Z,11.23
2023-02-14T05:26:13.892Z,9.75
2023-02-14T05:28:41.180Z,9.20
2023-02-14T05:31:09.023Z,10.95
2023-02-14T05:33:35.752Z,8.05
2023-02-14T05:36:02.905Z,7.07
2023-02-14T05:38:30.674Z,8.20
2023-02-14T05:40:57.389Z,9.57
2023-02-14T05:43:24.136Z,9.02
2023-02-14T05:45:50.818Z,9.18
2023-02-14T05:48:17.614Z,9.10
2023-02-14T05:50:45.653Z,9.93
2023-02-14T05:53:13.140Z,9.32
2023-02-14T05:55:39.786Z,9.50
2023-02-14T05:58:06.932Z,9.02
2023-02-14T06:00:34.501Z,9.63
2023-02-14T06:03:01.272Z,10.20
2023-02-14T06:05:28.069Z,9.07
2023-02-14T06:07:54.807Z,9.77
2023-02-14T06:10:24.724Z,9.52
2023-02-14T06:12:53.716Z,10.20
2023-02-14T06:15:20.556Z,9.57
2023-02-14T06:17:55.091Z,10.10
2023-02-14T06:20:24.325Z,10.60
2023-02-14T06:22:52.086Z,9.88
2023-02-14T06:25:19.160Z,9.77
2023-02-14T06:27:48.261Z,9.77
2023-02-14T06:30:17.404Z,9.13
2023-02-14T06:32:44.639Z,9.45
2023-02-14T06:35:11.549Z,9.60
2023-02-14T06:37:38.871Z,9.85
2023-02-14T06:40:06.289Z,10.02
2023-02-14T06:42:32.827Z,9.77
2023-02-14T06:44:59.545Z,10.07
2023-02-14T06:47:26.057Z,10.32
2023-02-14T06:49:52.668Z,9.77
2023-02-14T06:52:19.253Z,9.52
2023-02-14T06:54:45.850Z,10.02
2023-02-14T06:57:12.319Z,10.23
2023-02-14T06:59:39.017Z,9.35
2023-02-14T07:02:05.696Z,10.20
2023-02-14T07:04:32.316Z,10.00
2023-02-14T07:06:59.034Z,10.77
2023-02-14T07:09:25.597Z,9.50
2023-02-14T07:11:52.139Z,10.38
2023-02-14T07:14:18.776Z,10.98
2023-02-14T07:16:46.023Z,10.25
2023-02-14T07:19:12.868Z,11.20
2023-02-14T07:21:39.507Z,10.55
2023-02-14T07:24:06.238Z,11.30
2023-02-14T07:26:32.877Z,10.05
2023-02-14T07:28:59.413Z,10.77
2023-02-14T07:31:26.043Z,9.85
2023-02-14T07:33:52.594Z,9.45
2023-02-14T07:36:19.941Z,9.88
2023-02-14T07:38:46.475Z,11.10
2023-02-14T07:41:13.025Z,11.20
2023-02-14T07:43:39.838Z,11.60
2023-02-14T07:46:06.965Z,12.20
2023-02-14T07:48:34.452Z,12.85
2023-02-14T07:51:01.804Z,12.25
2023-02-14T07:53:28.659Z,13.40
2023-02-14T07:55:55.382Z,13.23
2023-02-14T07:58:22.019Z,14.35
2023-02-14T08:00:48.656Z,15.48
2023-02-14T08:03:15.397Z,15.35
2023-02-14T08:05:42.831Z,14.07
2023-02-14T08:08:09.487Z,13.32
2023-02-14T08:10:36.122Z,11.88
2023-02-14T08:13:03.676Z,10.55
2023-02-14T08:15:51.329Z,10.25
2023-02-14T08:18:20.409Z,10.50
2023-02-14T08:20:49.847Z,10.45
2023-02-14T08:23:18.176Z,11.27
2023-02-14T08:25:44.836Z,10.70
2023-02-14T08:28:13.741Z,11.98
2023-02-14T08:30:41.766Z,10.63
2023-02-14T08:33:08.824Z,11.55
2023-02-14T08:35:36.063Z,11.27
2023-02-14T08:38:03.929Z,13.13
2023-02-14T08:40:30.770Z,13.57
2023-02-14T08:42:57.513Z,12.98
2023-02-14T08:45:24.173Z,13.93
2023-02-14T08:47:50.893Z,14.00
2023-02-14T08:50:18.646Z,14.48
2023-02-14T08:52:45.316Z,14.68
2023-02-14T08:55:13.773Z,15.63
2023-02-14T08:57:41.026Z,15.02
2023-02-14T09:00:09.927Z,15.07
2023-02-14T09:02:36.879Z,15.48
2023-02-14T09:05:04.062Z,17.00
2023-02-14T09:07:30.739Z,15.80
2023-02-14T09:09:59.230Z,16.17
2023-02-14T09:12:25.864Z,17.13
2023-02-14T09:14:52.511Z,16.23
2023-02-14T09:17:19.126Z,16.63
2023-02-14T09:19:46.115Z,16.60
2023-02-14T09:22:12.652Z,16.33
2023-02-14T09:24:41.602Z,17.33
2023-02-14T09:27:09.151Z,17.67
2023-02-14T09:29:35.792Z,17.45
2023-02-14T09:32:02.751Z,17.17
2023-02-14T09:34:48.213Z,17.90
2023-02-14T09:37:34.041Z,17.02
2023-02-14T09:40:00.652Z,17.15
2023-02-14T09:42:37.407Z,17.05
2023-02-14T09:45:10.798Z,16.83
2023-02-14T09:47:52.490Z,16.90
2023-02-14T09:50:25.788Z,16.55
2023-02-14T09:52:57.238Z,17.10
2023-02-14T09:55:30.419Z,16.58
2023-02-14T09:57:56.964Z,18.13
2023-02-14T10:00:34.960Z,16.65
2023-02-14T10:03:28.426Z,17.45
2023-02-14T10:06:37.969Z,16.35
2023-02-14T10:09:26.619Z,16.67
2023-02-14T10:11:54.892Z,17.33
2023-02-14T10:14:25.733Z,17.83
2023-02-14T10:16:59.695Z,17.80
2023-02-14T10:19:39.995Z,17.70
2023-02-14T10:22:14.111Z,18.35
2023-02-14T10:24:49.656Z,17.45
2023-02-14T10:27:29.706Z,18.50
2023-02-14T10:29:56.314Z,17.35
2023-02-14T10:32:34.158Z,17.40
2023-02-14T10:35:05.890Z,17.30
2023-02-14T10:37:56.900Z,17.10
2023-02-14T10:41:01.195Z,16.50
2023-02-14T10:43:40.348Z,15.95
2023-02-14T10:46:31.406Z,14.95
2023-02-14T10:49:44.187Z,15.35
2023-02-14T10:52:29.445Z,15.52
2023-02-14T10:55:00.082Z,15.68
2023-02-14T10:57:33.881Z,15.60
2023-02-14T11:00:08.503Z,15.27
2023-02-14T11:02:41.425Z,16.50
2023-02-14T11:05:22.465Z,16.42
2023-02-14T11:07:49.514Z,16.38
2023-02-14T11:10:20.398Z,15.90
2023-02-14T11:12:47.184Z,15.52
2023-02-14T11:15:13.726Z,15.27
2023-02-14T11:17:41.692Z,13.68
2023-02-14T11:20:30.558Z,14.38
2023-02-14T11:22:57.495Z,15.57
2023-02-14T11:25:26.172Z,14.15
2023-02-14T11:28:17.073Z,15.70
2023-02-14T11:30:46.301Z,14.63
2023-02-14T11:33:42.604Z,14.73
2023-02-14T11:36:17.494Z,14.45
2023-02-14T11:38:45.813Z,15.05
2023-02-14T11:41:15.019Z,15.18
2023-02-14T11:43:44.002Z,14.45
2023-02-14T11:46:17.034Z,15.60
2023-02-14T11:49:02.157Z,14.95
2023-02-14T11:51:33.065Z,14.45
2023-02-14T11:54:04.955Z,14.48
2023-02-14T11:56:52.070Z,14.57
2023-02-14T11:59:30.688Z,14.63
2023-02-14T12:02:09.564Z,14.90
2023-02-14T12:04:46.145Z,14.68
2023-02-14T12:07:54.192Z,14.77
2023-02-14T12:10:31.791Z,13.82
2023-02-14T12:13:24.529Z,14.60
2023-02-14T12:15:56.353Z,14.82
2023-02-14T12:18:47.196Z,14.32
2023-02-14T12:21:38.095Z,14.73
2023-02-14T12:24:23.476Z,12.88
2023-02-14T12:26:52.772Z,13.77
2023-02-14T12:29:30.005Z,14.05
2023-02-14T12:32:14.781Z,13.80
2023-02-14T12:34:41.571Z,15.40
2023-02-14T12:37:21.327Z,14.10
2023-02-14T12:40:19.371Z,13.13
2023-02-14T12:42:55.238Z,14.00
2023-02-14T12:45:46.575Z,14.15
2023-02-14T12:49:00.788Z,14.25
2023-02-14T12:51:55.896Z,13.98
2023-02-14T12:55:09.725Z,13.65
2023-02-14T12:57:53.882Z,14.27
2023-02-14T13:00:39.192Z,14.15
2023-02-14T13:03:20.711Z,13.40
2023-02-14T13:06:04.648Z,12.75
2023-02-14T13:08:51.805Z,13.23
2023-02-14T13:11:34.429Z,12.68
2023-02-14T13:14:36.793Z,13.77
2023-02-14T13:17:06.393Z,13.57
2023-02-14T13:19:42.249Z,13.13
2023-02-14T13:22:14.620Z,13.95
2023-02-14T13:24:44.220Z,13.07
2023-02-14T13:27:22.177Z,12.90
2023-02-14T13:30:01.219Z,13.45
2023-02-14T13:32:33.133Z,13.50
2023-02-14T13:35:00.974Z,13.13
2023-02-14T13:37:28.427Z,14.27
2023-02-14T13:40:02.669Z,13.50
2023-02-14T13:42:47.715Z,14.80
2023-02-14T13:45:29.471Z,13.35
2023-02-14T13:48:27.474Z,13.98
2023-02-14T13:51:04.246Z,13.25
2023-02-14T13:53:41.531Z,13.40
2023-02-14T13:56:17.090Z,13.55
2023-02-14T13:58:48.120Z,13.27
2023-02-14T14:01:34.624Z,13.75
2023-02-14T14:04:09.570Z,14.07
2023-02-14T14:07:18.087Z,14.20
2023-02-14T14:09:44.923Z,14.27
2023-02-14T14:12:26.454Z,13.98
2023-02-14T14:15:05.025Z,14.05
2023-02-14T14:17:48.238Z,14.52
2023-02-14T14:20:20.534Z,13.55
2023-02-14T14:22:55.527Z,14.45
2023-02-14T14:25:34.749Z,14.32
2023-02-14T14:28:01.590Z,13.50
2023-02-14T14:30:35.209Z,14.18
2023-02-14T14:33:17.016Z,14.18
2023-02-14T14:35:54.798Z,13.60
2023-02-14T14:38:21.951Z,14.02
2023-02-14T14:40:49.622Z,13.73
2023-02-14T14:43:34.572Z,15.40
2023-02-14T14:46:03.089Z,14.50
2023-02-14T14:48:32.453Z,14.75
2023-02-14T14:51:00.030Z,14.77
2023-02-14T14:53:44.409Z,13.93
2023-02-14T14:56:24.118Z,14.48
2023-02-14T14:58:51.265Z,14.02
2023-02-14T15:01:48.067Z,15.25
2023-02-14T15:04:14.620Z,14.63
2023-02-14T15:06:41.390Z,14.35
2023-02-14T15:09:16.778Z,14.45
2023-02-14T15:14:32.732Z,14.63
2023-02-14T15:17:03.475Z,14.50
2023-02-14T15:19:38.699Z,14.57
2023-02-14T15:22:07.900Z,14.43
2023-02-14T15:24:37.931Z,14.80
2023-02-14T15:27:05.067Z,14.65
2023-02-14T15:29:33.138Z,15.15
2023-02-14T15:32:03.154Z,15.45
2023-02-14T15:34:36.239Z,15.73
2023-02-14T15:37:06.302Z,14.77
2023-02-14T15:39:37.195Z,13.93
2023-02-14T15:42:05.912Z,14.90
2023-02-14T15:44:32.826Z,15.25
2023-02-14T15:47:02.834Z,15.18
2023-02-14T15:49:38.197Z,15.55
2023-02-14T15:52:06.351Z,15.32
2023-02-14T15:54:39.231Z,15.73
2023-02-14T15:57:16.518Z,16.35
2023-02-14T15:59:43.354Z,15.80
2023-02-14T16:02:37.858Z,16.13
2023-02-14T16:05:26.082Z,16.35
2023-02-14T16:08:21.798Z,15.73
2023-02-14T16:11:14.563Z,15.05
2023-02-14T16:13:46.813Z,15.68
2023-02-14T16:16:14.904Z,18.80
2023-02-14T16:18:47.712Z,16.55
2023-02-14T16:21:35.230Z,16.45
2023-02-14T16:24:08.096Z,16.48
2023-02-14T16:26:36.686Z,15.65
2023-02-14T16:29:04.824Z,15.95
2023-02-14T16:31:32.881Z,15.93
2023-02-14T16:34:00.244Z,16.33
2023-02-14T16:36:29.554Z,16.40
2023-02-14T16:38:57.515Z,16.25
2023-02-14T16:41:36.235Z,15.68
2023-02-14T16:44:02.873Z,15.10
2023-02-14T16:46:31.271Z,16.50
2023-02-14T16:48:58.548Z,15.80
2023-02-14T16:51:29.638Z,15.77
2023-02-14T16:54:00.382Z,15.63
2023-02-14T16:56:46.878Z,15.20
2023-02-14T16:59:13.408Z,15.80
2023-02-14T17:01:41.101Z,15.18
2023-02-14T17:04:07.813Z,16.00
2023-02-14T17:06:37.725Z,14.48
2023-02-14T17:09:09.887Z,15.43
2023-02-14T17:11:40.010Z,15.88
2023-02-14T17:14:07.462Z,15.50
2023-02-14T17:16:34.412Z,15.70
2023-02-14T17:19:02.890Z,15.45
2023-02-14T17:21:29.914Z,16.25
2023-02-14T17:23:57.284Z,16.25
2023-02-14T17:26:24.239Z,15.32
2023-02-14T17:28:50.870Z,15.50
2023-02-14T17:31:18.073Z,16.00
2023-02-14T17:33:44.655Z,16.08
2023-02-14T17:36:13.443Z,15.20
2023-02-14T17:38:43.385Z,15.65
2023-02-14T17:41:14.802Z,16.00
2023-02-14T17:43:41.546Z,15.13
2023-02-14T17:46:08.528Z,15.98
2023-02-14T17:48:35.222Z,15.70
2023-02-14T17:51:06.775Z,15.40
2023-02-14T17:53:34.332Z,15.73
2023-02-14T17:56:12.751Z,15.23
2023-02-14T17:58:39.585Z,16.45
2023-02-14T18:01:08.995Z,15.23
2023-02-14T18:03:36.148Z,15.65
2023-02-14T18:06:03.410Z,15.15
2023-02-14T18:08:38.321Z,15.13
2023-02-14T18:11:10.285Z,15.05
2023-02-14T18:13:37.780Z,15.50
2023-02-14T18:16:06.643Z,16.27
2023-02-14T18:18:33.476Z,14.80
2023-02-14T18:21:02.362Z,16.65
2023-02-14T18:23:30.706Z,15.88
2023-02-14T18:26:01.064Z,16.48
2023-02-14T18:28:28.207Z,16.27
2023-02-14T18:30:55.068Z,15.73
2023-02-14T18:33:21.635Z,16.98
2023-02-14T18:35:48.212Z,16.13
2023-02-14T18:38:14.749Z,17.05
2023-02-14T18:40:42.935Z,15.52
2023-02-14T18:43:09.661Z,17.15
2023-02-14T18:45:37.872Z,16.65
2023-02-14T18:48:06.007Z,16.13
2023-02-14T18:50:33.660Z,15.98
2023-02-14T18:53:00.303Z,16.58
2023-02-14T18:55:27.398Z,15.65
2023-02-14T18:57:54.286Z,16.35
2023-02-14T19:00:21.839Z,17.10
2023-02-14T19:02:48.759Z,16.40
2023-02-14T19:05:15.325Z,16.20
2023-02-14T19:07:41.966Z,15.75
2023-02-14T19:10:09.410Z,17.88
2023-02-14T19:12:36.165Z,15.52
2023-02-14T19:15:03.544Z,16.15
2023-02-14T19:17:30.250Z,16.45
2023-02-14T19:19:57.312Z,16.00
2023-02-14T19:22:24.045Z,15.20
2023-02-14T19:24:52.995Z,14.82
2023-02-14T19:27:21.526Z,15.38
2023-02-14T19:29:48.279Z,16.00
2023-02-14T19:32:15.075Z,16.73
2023-02-14T19:34:41.734Z,17.65
2023-02-14T19:37:08.451Z,16.08
2023-02-14T19:39:35.110Z,16.77
2023-02-14T19:42:01.636Z,16.05
2023-02-14T19:44:29.358Z,15.27
2023-02-14T19:46:56.658Z,14.98
2023-02-14T19:49:23.656Z,15.55
2023-02-14T19:51:53.381Z,15.68
2023-02-14T19:54:21.973Z,15.80
2023-02-14T19:56:48.703Z,14.43
2023-02-14T19:59:20.119Z,14.45
2023-02-14T20:01:51.014Z,15.02
2023-02-14T20:04:20.697Z,16.88
2023-02-14T20:06:48.051Z,14.15
2023-02-14T20:09:16.027Z,17.23
2023-02-14T20:11:49.839Z,16.27
2023-02-14T20:14:19.528Z,16.83
2023-02-14T20:16:47.422Z,14.88
2023-02-14T20:19:16.699Z,15.52
2023-02-14T20:21:45.584Z,15.02
2023-02-14T20:24:17.440Z,14.63
2023-02-14T20:26:44.280Z,14.95
2023-02-14T20:29:11.125Z,16.23
2023-02-14T20:31:42.871Z,15.32
2023-02-14T20:34:09.716Z,15.13
2023-02-14T20:36:36.256Z,15.27
2023-02-14T20:39:05.053Z,17.65
2023-02-14T20:41:34.457Z,19.10
2023-02-14T20:44:10.426Z,15.95
2023-02-14T20:46:37.258Z,15.10
2023-02-14T20:49:04.080Z,15.07
2023-02-14T20:51:31.020Z,14.68
2023-02-14T20:53:57.646Z,15.43
2023-02-14T20:56:24.622Z,16.20
2023-02-14T20:58:51.242Z,14.70
2023-02-14T21:01:21.214Z,14.57
2023-02-14T21:03:52.846Z,15.13
2023-02-14T21:06:21.593Z,16.63
2023-02-14T21:08:48.945Z,14.98
2023-02-14T21:11:17.849Z,15.88
2023-02-14T21:13:44.359Z,14.23
2023-02-14T21:16:16.434Z,13.55
2023-02-14T21:18:48.635Z,14.48
2023-02-14T21:21:32.545Z,15.07
2023-02-14T21:24:09.220Z,15.18
2023-02-14T21:26:37.805Z,16.45
2023-02-14T21:29:05.562Z,16.90
2023-02-14T21:31:32.725Z,16.85
2023-02-14T21:34:01.600Z,16.65
2023-02-14T21:36:30.600Z,15.07
2023-02-14T21:38:58.990Z,14.25
2023-02-14T21:41:28.267Z,14.02
2023-02-14T21:43:58.694Z,16.27
2023-02-14T21:46:31.743Z,14.35
2023-02-14T21:49:20.446Z,15.43
2023-02-14T21:51:47.786Z,16.23
2023-02-14T21:54:15.455Z,14.15
2023-02-14T21:56:42.432Z,14.55
2023-02-14T21:59:09.810Z,14.60
2023-02-14T22:01:38.393Z,15.45
2023-02-14T22:04:09.186Z,14.27
2023-02-14T22:06:38.874Z,15.75
2023-02-14T22:09:07.006Z,15.45
2023-02-14T22:11:33.901Z,16.40
2023-02-14T22:14:00.624Z,15.55
2023-02-14T22:16:27.389Z,15.20
2023-02-14T22:18:53.938Z,14.70
2023-02-14T22:21:26.573Z,15.20
2023-02-14T22:23:55.167Z,15.20
2023-02-14T22:26:24.553Z,15.07
2023-02-14T22:28:53.968Z,15.57
2023-02-14T22:31:20.899Z,17.00
2023-02-14T22:33:48.756Z,17.33
2023-02-14T22:36:15.910Z,17.60
2023-02-14T22:38:42.653Z,18.17
2023-02-14T22:41:18.210Z,18.30
2023-02-14T22:43:45.237Z,19.45
2023-02-14T22:46:12.948Z,16.95
2023-02-14T22:48:40.250Z,17.25
2023-02-14T22:51:25.730Z,17.45
2023-02-14T22:53:56.266Z,17.05
2023-02-14T22:56:27.296Z,16.73
2023-02-14T22:58:59.364Z,15.88
2023-02-14T23:01:26.660Z,17.83
2023-02-14T23:03:55.836Z,18.65
2023-02-14T23:06:23.772Z,19.35
2023-02-14T23:08:50.732Z,17.92
2023-02-14T23:11:20.545Z,20.00
2023-02-14T23:14:07.134Z,17.98
2023-02-14T23:16:52.428Z,18.23
2023-02-14T23:19:40.654Z,19.15
2023-02-14T23:22:16.090Z,21.38
2023-02-14T23:24:45.494Z,20.00
2023-02-14T23:27:12.133Z,20.33
2023-02-14T23:29:38.778Z,20.25
2023-02-14T23:32:06.900Z,20.55
2023-02-14T23:34:36.036Z,20.35
2023-02-14T23:37:03.202Z,19.52
2023-02-14T23:39:33.409Z,20.65
2023-02-14T23:42:00.347Z,20.58
2023-02-14T23:44:28.213Z,22.27
2023-02-14T23:46:57.513Z,22.05
2023-02-14T23:49:24.976Z,21.33
2023-02-14T23:51:53.970Z,22.58
2023-02-14T23:54:21.826Z,21.02
2023-02-14T23:56:49.000Z,21.13
2023-02-14T23:59:16.328Z,22.73
